Terminal Aerodrome Forecast
Issued by NWS Burlington, VT

Home | Current Version | Previous Version | Text Only | Print | Product List | Glossary On
Versions: 1 2 3 4 5 6 7 8 9 10 11 12 13 14 15
000
FTUS41 KBTV 291120
TAFBTV
TAF
KBTV 291120Z 2912/3012 00000KT P6SM SCT045
      TEMPO 2912/2913 BKN015
     FM291300 19006KT P6SM SKC
     FM301000 18010G20KT P6SM OVC120=

USA.gov is the U.S. government's official web portal to all federal, state and local government web resources and services.